Breitung, Minnesota
Current Conditions -  °F | °C
As of 12:35 AM on Friday 31 Oct 2014 (Local Time) from KCQM Reporting Station
Scattered Clouds Scattered Clouds  
Wind Chill: 18°   Ceiling: Unl
Heat Index: 25°   Visibility: 10mi
Dew Point: 18°   Wind: 6mph
Humidity: 74%   Direction: 360°N
Pressure: 30.42"   Gusts: NA
Location:  47.7992°N, 92.3042°W
Report Text: KCQM 310535Z AUTO 36005KT 10SM SCT028 SCT035 M04/M08 A3042 RMK AO2
Loading
Personal Weather Stations






























Interactive Weather Map
Tropical Storm Tracking
New forecast layout! Learn more

10-Day Weather Forecast

Advertisements
Track Severe Weather on mobile